createdAt,value
2019-02-20T00:02:03.207Z,54.47
2019-02-20T00:04:33.508Z,56.47
2019-02-20T00:07:04.118Z,54.50
2019-02-20T00:09:34.592Z,57.47
2019-02-20T00:12:05.172Z,54.90
2019-02-20T00:14:35.598Z,53.57
2019-02-20T00:17:06.996Z,50.17
2019-02-20T00:19:38.790Z,48.87
2019-02-20T00:22:09.074Z,52.57
2019-02-20T00:24:39.754Z,56.17
2019-02-20T00:27:10.008Z,55.50
2019-02-20T00:29:40.341Z,51.73
2019-02-20T00:32:10.592Z,52.13
2019-02-20T00:34:41.210Z,53.37
2019-02-20T00:37:11.472Z,53.63
2019-02-20T00:39:41.706Z,50.27
2019-02-20T00:42:12.173Z,52.10
2019-02-20T00:45:04.474Z,56.80
2019-02-20T00:47:46.123Z,55.20
2019-02-20T00:50:17.074Z,54.87
2019-02-20T00:53:02.170Z,50.10
2019-02-20T00:55:32.565Z,56.67
2019-02-20T00:58:03.235Z,51.93
2019-02-20T01:00:33.577Z,49.53
2019-02-20T01:03:04.641Z,56.93
2019-02-20T01:05:34.915Z,53.33
2019-02-20T01:08:06.889Z,50.40
2019-02-20T01:10:37.162Z,51.27
2019-02-20T01:13:07.634Z,49.20
2019-02-20T01:15:39.015Z,57.23
2019-02-20T01:18:09.523Z,46.53
2019-02-20T01:20:41.383Z,55.47
2019-02-20T01:23:11.899Z,52.00
2019-02-20T01:25:42.225Z,52.67
2019-02-20T01:28:12.967Z,49.47
2019-02-20T01:30:43.255Z,49.33
2019-02-20T01:33:13.597Z,49.80
2019-02-20T01:35:44.235Z,50.53
2019-02-20T01:38:14.525Z,53.23
2019-02-20T01:40:45.063Z,53.57
2019-02-20T01:43:15.333Z,50.77
2019-02-20T01:45:45.987Z,53.60
2019-02-20T01:48:16.307Z,54.17
2019-02-20T01:50:47.409Z,51.13
2019-02-20T01:53:17.654Z,61.23
2019-02-20T01:55:48.242Z,50.37
2019-02-20T01:58:18.497Z,48.20
2019-02-20T02:00:49.108Z,49.67
2019-02-20T02:03:19.371Z,53.97
2019-02-20T02:05:49.984Z,50.93
2019-02-20T02:08:21.435Z,52.30
2019-02-20T02:10:51.857Z,51.80
2019-02-20T02:13:22.592Z,53.70
2019-02-20T02:15:53.059Z,51.93
2019-02-20T02:18:23.355Z,50.60
2019-02-20T02:20:55.535Z,49.83
2019-02-20T02:23:27.070Z,54.40
2019-02-20T02:25:57.578Z,50.10
2019-02-20T02:28:27.895Z,47.70
2019-02-20T02:30:58.366Z,45.53
2019-02-20T02:33:28.602Z,47.57
2019-02-20T02:35:59.137Z,45.83
2019-02-20T02:38:29.380Z,48.83
2019-02-20T02:40:59.721Z,51.00
2019-02-20T02:43:30.686Z,49.53
2019-02-20T02:46:00.865Z,47.27
2019-02-20T02:48:31.342Z,41.87
2019-02-20T02:51:02.019Z,47.17
2019-02-20T02:53:32.807Z,44.30
2019-02-20T02:56:03.056Z,40.80
2019-02-20T02:58:33.358Z,44.20
2019-02-20T03:01:03.861Z,45.03
2019-02-20T03:03:34.152Z,45.40
2019-02-20T03:06:04.844Z,42.77
2019-02-20T03:08:35.168Z,46.87
2019-02-20T03:11:05.888Z,40.10
2019-02-20T03:13:36.141Z,46.20
2019-02-20T03:16:06.584Z,44.17
2019-02-20T03:18:36.880Z,47.33
2019-02-20T03:21:09.029Z,42.40
2019-02-20T03:23:40.476Z,38.47
2019-02-20T03:26:11.517Z,39.27
2019-02-20T03:28:41.751Z,41.43
2019-02-20T03:31:12.262Z,43.03
2019-02-20T03:33:42.647Z,40.50
2019-02-20T03:36:13.334Z,41.33
2019-02-20T03:38:43.578Z,37.23
2019-02-20T03:41:14.074Z,39.97
2019-02-20T03:43:44.332Z,44.97
2019-02-20T03:46:14.619Z,39.13
2019-02-20T03:48:45.038Z,40.37
2019-02-20T03:51:15.655Z,43.83
2019-02-20T03:53:51.589Z,40.87
2019-02-20T03:56:18.591Z,42.47
2019-02-20T03:58:49.019Z,36.90
2019-02-20T04:01:19.304Z,40.90
2019-02-20T04:03:50.086Z,40.47
2019-02-20T04:06:20.355Z,41.90
2019-02-20T04:08:50.820Z,45.13
2019-02-20T04:11:21.084Z,46.50
2019-02-20T04:13:51.573Z,39.00
2019-02-20T04:16:21.747Z,41.83
2019-02-20T04:18:52.014Z,40.03
2019-02-20T04:21:23.781Z,34.93
2019-02-20T04:24:01.945Z,31.87
2019-02-20T04:26:26.170Z,36.93
2019-02-20T04:28:56.665Z,36.40
2019-02-20T04:31:27.427Z,34.10
2019-02-20T04:33:57.738Z,37.87
2019-02-20T04:36:28.065Z,35.63
2019-02-20T04:38:58.384Z,34.93
2019-02-20T04:41:28.913Z,41.40
2019-02-20T04:43:59.087Z,33.57
2019-02-20T04:46:29.687Z,34.60
2019-02-20T04:49:00.008Z,37.43
2019-02-20T04:51:31.131Z,30.07
2019-02-20T04:54:01.395Z,30.53
2019-02-20T04:56:31.710Z,34.83
2019-02-20T04:59:02.344Z,35.67
2019-02-20T05:01:33.178Z,34.20
2019-02-20T05:04:03.422Z,35.67
2019-02-20T05:06:33.645Z,33.30
2019-02-20T05:09:05.484Z,38.67
2019-02-20T05:11:37.277Z,31.27
2019-02-20T05:14:08.907Z,34.57
2019-02-20T05:16:39.263Z,39.33
2019-02-20T05:19:10.785Z,36.10
2019-02-20T05:21:41.701Z,39.40
2019-02-20T05:24:11.953Z,32.10
2019-02-20T05:26:42.192Z,38.57
2019-02-20T05:29:12.669Z,31.77
2019-02-20T05:31:42.925Z,31.80
2019-02-20T05:34:13.140Z,34.60
2019-02-20T05:36:43.641Z,33.87
2019-02-20T05:39:13.899Z,32.60
2019-02-20T05:41:44.123Z,32.90
2019-02-20T05:44:14.685Z,37.17
2019-02-20T05:46:44.940Z,29.47
2019-02-20T05:49:15.225Z,31.53
2019-02-20T05:51:47.127Z,31.77
2019-02-20T05:54:17.477Z,31.47
2019-02-20T05:56:48.507Z,34.20
2019-02-20T05:59:18.773Z,28.10
2019-02-20T06:01:49.238Z,28.97
2019-02-20T06:04:19.513Z,33.43
2019-02-20T06:06:49.981Z,24.83
2019-02-20T06:09:20.216Z,28.50
2019-02-20T06:11:50.970Z,28.03
2019-02-20T06:14:22.797Z,26.13
2019-02-20T06:16:53.346Z,27.67
2019-02-20T06:19:23.623Z,26.10
2019-02-20T06:21:54.278Z,25.27
2019-02-20T06:24:24.534Z,27.53
2019-02-20T06:26:55.183Z,27.77
2019-02-20T06:29:25.522Z,20.93
2019-02-20T06:31:56.202Z,23.80
2019-02-20T06:34:26.620Z,29.30
2019-02-20T06:36:56.976Z,24.53
2019-02-20T06:39:27.236Z,22.93
2019-02-20T06:41:57.618Z,27.23
2019-02-20T06:44:28.255Z,20.57
2019-02-20T06:46:58.544Z,21.20
2019-02-20T06:49:29.323Z,20.80
2019-02-20T06:51:59.915Z,19.13
2019-02-20T06:54:30.983Z,23.50
2019-02-20T06:57:01.416Z,20.80
2019-02-20T06:59:32.042Z,20.13
2019-02-20T07:02:02.288Z,23.73
2019-02-20T07:04:32.630Z,19.40
2019-02-20T07:07:22.506Z,17.23
2019-02-20T07:10:42.094Z,16.60
2019-02-20T07:13:19.175Z,20.80
2019-02-20T07:16:37.434Z,21.17
2019-02-20T07:19:50.443Z,19.53
2019-02-20T07:22:53.028Z,23.43
2019-02-20T07:25:37.788Z,21.77
2019-02-20T07:28:46.330Z,16.20
2019-02-20T07:31:17.297Z,19.60
2019-02-20T07:33:47.474Z,18.67
2019-02-20T07:36:17.709Z,21.50
2019-02-20T07:38:48.122Z,19.43
2019-02-20T07:41:18.398Z,19.63
2019-02-20T07:43:48.949Z,20.50
2019-02-20T07:46:19.276Z,21.27
2019-02-20T07:48:52.002Z,22.37
2019-02-20T07:51:22.191Z,19.97
2019-02-20T07:53:52.989Z,20.63
2019-02-20T07:56:24.112Z,16.80
2019-02-20T07:58:54.970Z,20.10
2019-02-20T08:01:25.264Z,20.67
2019-02-20T08:03:55.733Z,24.03
2019-02-20T08:06:25.993Z,21.27
2019-02-20T08:08:57.939Z,22.97
2019-02-20T08:11:28.141Z,22.30
2019-02-20T08:13:58.765Z,20.47
2019-02-20T08:16:29.716Z,20.13
2019-02-20T08:19:00.444Z,24.03
2019-02-20T08:21:30.612Z,23.47
2019-02-20T08:24:01.185Z,26.93
2019-02-20T08:26:31.412Z,22.83
2019-02-20T08:29:01.979Z,20.50
2019-02-20T08:31:32.224Z,20.97
2019-02-20T08:34:02.508Z,21.80
2019-02-20T08:36:33.079Z,21.43
2019-02-20T08:39:04.872Z,22.30
2019-02-20T08:41:36.981Z,21.77
2019-02-20T08:44:07.205Z,16.43
2019-02-20T08:46:37.914Z,20.13
2019-02-20T08:49:08.237Z,17.50
2019-02-20T08:51:38.520Z,23.57
2019-02-20T08:54:09.376Z,18.10
2019-02-20T08:56:39.595Z,15.57
2019-02-20T08:59:11.347Z,15.47
2019-02-20T09:01:41.599Z,17.67
2019-02-20T09:04:11.903Z,12.33
2019-02-20T09:06:42.529Z,18.47
2019-02-20T09:09:13.497Z,12.63
2019-02-20T09:11:45.530Z,12.50
2019-02-20T09:14:16.361Z,11.73
2019-02-20T09:16:48.951Z,12.30
2019-02-20T09:19:21.099Z,13.10
2019-02-20T09:21:51.372Z,11.40
2019-02-20T09:24:22.791Z,14.13
2019-02-20T09:26:53.331Z,10.33
2019-02-20T09:29:23.870Z,13.30
2019-02-20T09:31:54.608Z,15.57
2019-02-20T09:34:24.974Z,16.70
2019-02-20T09:36:55.841Z,13.27
2019-02-20T09:39:37.891Z,11.80
2019-02-20T09:42:16.716Z,14.43
2019-02-20T09:44:50.795Z,13.07
2019-02-20T09:47:22.040Z,16.03
2019-02-20T09:49:52.346Z,16.67
2019-02-20T09:52:22.732Z,17.83
2019-02-20T09:54:54.021Z,17.03
2019-02-20T09:57:24.402Z,15.90
2019-02-20T09:59:54.653Z,18.97
2019-02-20T10:02:25.261Z,19.43
2019-02-20T10:04:56.753Z,16.33
2019-02-20T10:07:27.281Z,16.33
2019-02-20T10:09:57.576Z,15.40
2019-02-20T10:12:27.902Z,17.60
2019-02-20T10:14:58.330Z,18.67
2019-02-20T10:17:32.136Z,20.63
2019-02-20T10:20:03.675Z,21.80
2019-02-20T10:22:33.826Z,26.90
2019-02-20T10:25:04.985Z,15.30
2019-02-20T10:27:35.256Z,11.60
2019-02-20T10:30:09.677Z,15.07
2019-02-20T10:32:40.108Z,11.33
2019-02-20T10:35:11.083Z,18.30
2019-02-20T10:37:41.593Z,16.40
2019-02-20T10:40:12.156Z,19.97
2019-02-20T10:42:42.401Z,19.50
2019-02-20T10:45:12.746Z,19.33
2019-02-20T10:47:43.154Z,21.93
2019-02-20T10:50:13.878Z,17.50
2019-02-20T10:52:44.115Z,19.50
2019-02-20T10:55:15.330Z,14.73
2019-02-20T10:57:45.818Z,16.57
2019-02-20T11:00:24.004Z,22.90
2019-02-20T11:02:53.097Z,16.97
2019-02-20T11:05:23.881Z,19.97
2019-02-20T11:07:54.972Z,18.03
2019-02-20T11:10:25.554Z,15.70
2019-02-20T11:12:55.892Z,16.57
2019-02-20T11:15:26.325Z,20.47
2019-02-20T11:17:57.667Z,20.93
2019-02-20T11:20:28.052Z,17.40
2019-02-20T11:22:58.418Z,17.57
2019-02-20T11:25:29.071Z,17.17
2019-02-20T11:27:59.370Z,14.23
2019-02-20T11:30:29.635Z,13.47
2019-02-20T11:33:00.060Z,12.57
2019-02-20T11:35:30.393Z,12.77
2019-02-20T11:38:00.977Z,16.57
2019-02-20T11:40:31.290Z,12.87
2019-02-20T11:43:03.982Z,15.20
2019-02-20T11:45:34.282Z,12.63
2019-02-20T11:48:04.588Z,20.80
2019-02-20T11:50:34.792Z,14.60
2019-02-20T11:53:05.191Z,21.33
2019-02-20T11:55:35.796Z,12.77
2019-02-20T11:58:06.311Z,13.97
2019-02-20T12:00:37.634Z,13.40
2019-02-20T12:03:08.186Z,9.57
2019-02-20T12:05:38.482Z,11.80
2019-02-20T12:08:09.657Z,9.10
2019-02-20T12:10:39.920Z,7.93
2019-02-20T12:13:10.338Z,9.37
2019-02-20T12:15:40.607Z,10.20
2019-02-20T12:18:17.189Z,9.13
2019-02-20T12:20:43.383Z,9.20
2019-02-20T12:23:13.709Z,9.33
2019-02-20T12:25:44.569Z,10.97
2019-02-20T12:28:14.832Z,11.27
2019-02-20T12:30:45.253Z,9.67
2019-02-20T12:33:15.862Z,9.50
2019-02-20T12:35:46.091Z,10.80
2019-02-20T12:38:16.351Z,10.93
2019-02-20T12:40:47.993Z,14.13
2019-02-20T12:43:20.732Z,10.90
2019-02-20T12:45:50.958Z,8.87
2019-02-20T12:48:21.751Z,13.00
2019-02-20T12:50:52.066Z,10.83
2019-02-20T12:53:23.310Z,12.07
2019-02-20T12:55:54.227Z,10.07
2019-02-20T12:58:24.553Z,11.67
2019-02-20T13:00:55.301Z,9.17
2019-02-20T13:03:25.575Z,9.87
2019-02-20T13:05:56.284Z,6.90
2019-02-20T13:08:26.555Z,8.13
2019-02-20T13:10:57.073Z,8.90
2019-02-20T13:13:27.425Z,7.70
2019-02-20T13:15:57.874Z,11.03
2019-02-20T13:18:29.019Z,14.70
2019-02-20T13:20:59.568Z,7.37
2019-02-20T13:23:29.888Z,8.53
2019-02-20T13:26:00.584Z,7.03
2019-02-20T13:28:30.857Z,10.07
2019-02-20T13:31:01.739Z,11.23
2019-02-20T13:33:31.894Z,8.90
2019-02-20T13:36:02.433Z,8.97
2019-02-20T13:38:32.778Z,11.90
2019-02-20T13:41:03.176Z,9.70
2019-02-20T13:43:33.411Z,7.87
2019-02-20T13:46:03.673Z,9.53
2019-02-20T13:48:34.968Z,8.53
2019-02-20T13:51:06.075Z,8.50
2019-02-20T13:53:36.721Z,13.73
2019-02-20T13:56:07.837Z,10.57
2019-02-20T13:58:38.417Z,8.20
2019-02-20T14:01:08.733Z,8.63
2019-02-20T14:03:39.187Z,9.83
2019-02-20T14:06:09.431Z,7.43
2019-02-20T14:08:39.916Z,7.57
2019-02-20T14:11:10.711Z,7.57
2019-02-20T14:13:41.323Z,8.43
2019-02-20T14:16:11.696Z,10.23
2019-02-20T14:18:43.075Z,10.00
2019-02-20T14:21:13.314Z,10.83
2019-02-20T14:23:43.719Z,9.00
2019-02-20T14:26:14.385Z,11.63
2019-02-20T14:28:47.459Z,11.53
2019-02-20T14:31:17.054Z,9.60
2019-02-20T14:33:48.132Z,13.87
2019-02-20T14:36:18.822Z,10.17
2019-02-20T14:38:49.642Z,9.97
2019-02-20T14:41:21.356Z,10.07
2019-02-20T14:43:52.354Z,11.37
2019-02-20T14:46:22.487Z,9.43
2019-02-20T14:48:52.975Z,10.70
2019-02-20T14:51:23.238Z,12.10
2019-02-20T14:53:54.324Z,7.70
2019-02-20T14:56:25.786Z,9.27
2019-02-20T14:58:56.314Z,13.37
2019-02-20T15:01:28.420Z,9.83
2019-02-20T15:03:58.948Z,7.93
2019-02-20T15:06:30.404Z,7.50
2019-02-20T15:09:00.822Z,9.83
2019-02-20T15:11:32.912Z,11.20
2019-02-20T15:14:03.157Z,8.17
2019-02-20T15:16:33.408Z,6.27
2019-02-20T15:19:04.839Z,6.87
2019-02-20T15:21:35.339Z,9.87
2019-02-20T15:24:05.622Z,8.97
2019-02-20T15:26:36.124Z,7.30
2019-02-20T15:29:06.511Z,9.03
2019-02-20T15:31:37.726Z,11.57
2019-02-20T15:34:08.342Z,10.63
2019-02-20T15:36:39.176Z,7.47
2019-02-20T15:39:09.610Z,6.70
2019-02-20T15:41:40.849Z,11.07
2019-02-20T15:44:11.229Z,9.90
2019-02-20T15:46:41.656Z,9.73
2019-02-20T15:49:12.457Z,6.77
2019-02-20T15:51:42.756Z,11.47
2019-02-20T15:54:13.176Z,10.77
2019-02-20T15:56:46.086Z,11.37
2019-02-20T15:59:16.691Z,9.10
2019-02-20T16:01:47.434Z,12.23
2019-02-20T16:04:17.912Z,8.60
2019-02-20T16:06:48.202Z,12.70
2019-02-20T16:09:18.518Z,13.43
2019-02-20T16:11:49.034Z,12.50
2019-02-20T16:14:22.352Z,11.27
2019-02-20T16:16:52.947Z,18.13
2019-02-20T16:19:24.239Z,11.57
2019-02-20T16:21:54.565Z,13.73
2019-02-20T16:24:25.956Z,8.50
2019-02-20T16:26:57.431Z,12.43
2019-02-20T16:29:28.099Z,12.33
2019-02-20T16:31:58.462Z,10.33
2019-02-20T16:34:29.088Z,11.70
2019-02-20T16:36:59.535Z,7.70
2019-02-20T16:39:31.962Z,7.97
2019-02-20T16:42:02.452Z,5.70
2019-02-20T16:44:32.951Z,6.47
2019-02-20T16:47:03.617Z,8.00
2019-02-20T16:49:34.670Z,11.73
2019-02-20T16:52:05.187Z,7.63
2019-02-20T16:54:36.558Z,8.00
2019-02-20T16:57:08.195Z,5.90
2019-02-20T16:59:39.269Z,9.33
2019-02-20T17:02:12.223Z,9.77
2019-02-20T17:04:42.596Z,9.80
2019-02-20T17:07:13.270Z,5.47
2019-02-20T17:09:43.539Z,7.43
2019-02-20T17:12:13.878Z,12.07
2019-02-20T17:14:45.401Z,11.17
2019-02-20T17:17:15.997Z,7.60
2019-02-20T17:19:47.085Z,7.60
2019-02-20T17:22:17.992Z,6.20
2019-02-20T17:24:49.003Z,11.93
2019-02-20T17:27:20.012Z,9.27
2019-02-20T17:29:50.545Z,7.80
2019-02-20T17:32:21.265Z,7.93
2019-02-20T17:34:52.665Z,11.10
2019-02-20T17:37:24.107Z,10.03
2019-02-20T17:39:54.487Z,8.50
2019-02-20T17:42:24.989Z,7.77
2019-02-20T17:44:55.233Z,9.53
2019-02-20T17:47:25.729Z,5.60
2019-02-20T17:49:56.099Z,3.97
2019-02-20T17:52:26.829Z,9.77
2019-02-20T17:54:57.253Z,5.43
2019-02-20T17:57:28.611Z,9.43
2019-02-20T17:59:59.384Z,5.43
2019-02-20T18:02:30.193Z,7.93
2019-02-20T18:05:00.466Z,9.20
2019-02-20T18:07:31.155Z,8.23
2019-02-20T18:10:01.567Z,10.13
2019-02-20T18:12:34.665Z,10.93
2019-02-20T18:15:05.877Z,13.63
2019-02-20T18:17:36.309Z,9.93
2019-02-20T18:20:08.250Z,11.80
2019-02-20T18:22:39.321Z,9.13
2019-02-20T18:25:10.118Z,12.87
2019-02-20T18:27:40.760Z,10.23
2019-02-20T18:30:11.621Z,9.70
2019-02-20T18:32:43.282Z,7.50
2019-02-20T18:35:13.541Z,9.87
2019-02-20T18:37:44.000Z,16.53
2019-02-20T18:40:15.177Z,13.33
2019-02-20T18:42:46.011Z,12.63
2019-02-20T18:45:16.529Z,11.37
2019-02-20T18:47:47.335Z,12.23
2019-02-20T18:50:17.681Z,9.13
2019-02-20T18:52:49.203Z,11.33
2019-02-20T18:55:20.451Z,8.30
2019-02-20T18:57:51.213Z,12.80
2019-02-20T19:00:21.874Z,11.13
2019-02-20T19:02:52.673Z,10.63
2019-02-20T19:05:22.995Z,9.27
2019-02-20T19:07:53.543Z,10.17
2019-02-20T19:10:34.174Z,6.63
2019-02-20T19:13:40.896Z,8.97
2019-02-20T19:16:45.579Z,7.70
2019-02-20T19:20:08.943Z,11.73
2019-02-20T19:23:08.667Z,10.43
2019-02-20T19:26:04.953Z,9.80
2019-02-20T19:29:15.133Z,13.70
2019-02-20T19:32:34.164Z,9.83
2019-02-20T19:35:22.163Z,11.37
2019-02-20T19:38:24.348Z,11.10
2019-02-20T19:41:21.463Z,8.90
2019-02-20T19:44:07.210Z,8.03
2019-02-20T19:47:07.512Z,12.23
2019-02-20T19:50:04.040Z,14.33
2019-02-20T19:53:08.002Z,11.73
2019-02-20T19:56:02.406Z,10.27
2019-02-20T19:59:09.960Z,9.17
2019-02-20T20:02:04.169Z,11.47
2019-02-20T20:05:13.834Z,9.43
2019-02-20T20:08:08.152Z,12.23
2019-02-20T20:11:18.372Z,12.47
2019-02-20T20:14:27.075Z,12.00
2019-02-20T20:17:38.355Z,9.83
2019-02-20T20:20:33.024Z,14.23
2019-02-20T20:23:57.745Z,15.80
2019-02-20T20:27:00.370Z,11.23
2019-02-20T20:30:00.026Z,13.50
2019-02-20T20:33:09.000Z,11.23
2019-02-20T20:36:09.787Z,10.00
2019-02-20T20:39:14.844Z,9.40
2019-02-20T20:42:17.691Z,10.57
2019-02-20T20:45:06.715Z,12.53
2019-02-20T20:48:12.050Z,8.33
2019-02-20T20:51:27.834Z,15.67
2019-02-20T20:54:31.939Z,12.73
2019-02-20T20:57:34.947Z,12.13
2019-02-20T21:00:47.893Z,13.07
2019-02-20T21:03:19.317Z,13.50
2019-02-20T21:06:21.780Z,13.23
2019-02-20T21:09:06.314Z,16.17
2019-02-20T21:12:00.325Z,13.53
2019-02-20T21:15:02.465Z,16.97
2019-02-20T21:18:03.392Z,11.43
2019-02-20T21:21:02.690Z,10.80
2019-02-20T21:24:04.442Z,15.70
2019-02-20T21:27:08.055Z,19.40
2019-02-20T21:30:00.101Z,15.33
2019-02-20T21:33:27.307Z,17.53
2019-02-20T21:36:07.404Z,13.43
2019-02-20T21:39:13.657Z,17.20
2019-02-20T21:42:15.561Z,11.67
2019-02-20T21:45:54.043Z,10.87
2019-02-20T21:49:14.290Z,21.50
2019-02-20T21:52:41.288Z,10.93
2019-02-20T21:55:39.192Z,16.13
2019-02-20T21:58:44.149Z,18.60
2019-02-20T22:01:48.684Z,16.77
2019-02-20T22:04:43.886Z,16.37
2019-02-20T22:08:01.540Z,19.93
2019-02-20T22:11:34.614Z,16.07
2019-02-20T22:14:41.926Z,15.10
2019-02-20T22:17:51.234Z,15.23
2019-02-20T22:20:50.366Z,20.03
2019-02-20T22:23:47.326Z,15.80
2019-02-20T22:26:56.266Z,15.20
2019-02-20T22:29:36.197Z,14.13
2019-02-20T22:32:32.332Z,20.57
2019-02-20T22:35:45.402Z,17.20
2019-02-20T22:38:45.035Z,14.37
2019-02-20T22:41:59.715Z,19.07
2019-02-20T22:44:54.544Z,14.57
2019-02-20T22:47:50.811Z,16.87
2019-02-20T22:50:59.223Z,18.80
2019-02-20T22:53:55.592Z,13.53
2019-02-20T22:56:56.815Z,17.67
2019-02-20T23:00:02.465Z,21.50
2019-02-20T23:03:13.625Z,16.17
2019-02-20T23:06:23.018Z,18.37
2019-02-20T23:09:19.722Z,22.97
2019-02-20T23:12:20.188Z,21.00
2019-02-20T23:14:57.597Z,28.20
2019-02-20T23:17:28.676Z,15.97
2019-02-20T23:19:58.956Z,20.60
2019-02-20T23:22:29.334Z,15.10
2019-02-20T23:24:59.593Z,16.57
2019-02-20T23:27:31.342Z,14.20
2019-02-20T23:30:12.209Z,13.83
2019-02-20T23:32:35.456Z,16.03
2019-02-20T23:35:06.303Z,12.37
2019-02-20T23:37:36.558Z,14.40
2019-02-20T23:40:08.836Z,15.10
2019-02-20T23:42:39.072Z,14.70
2019-02-20T23:45:09.608Z,16.10
2019-02-20T23:47:39.952Z,15.87
2019-02-20T23:50:10.305Z,14.97
2019-02-20T23:52:40.535Z,16.73
2019-02-20T23:55:11.462Z,13.50
2019-02-20T23:57:41.746Z,14.77
